Main page
Satellite images 10-day forecastsClimateMarine weather Cyclones Lightning AirportsFAQ Newsletter About
Weather : Europe Africa North America South America Asia Australia-Oceania Others
Languages Contact

Islamabad, Pakistan

Benazir Bhutto International Airport

latitude: 33-37N, longitude: 073-06E, elevation: 507 m


METAR: OPRN 210600Z 23010KT 4000 HZ NSC 28/16 Q1013.3/29.92
TAF: OPRN 210330Z 2106/2212 13010KT 4000 HZ SC CHECK TEXT NEW ENDING ADDED VABBYFYX

Time: 11:30 (06:30 UTC)

Current weather observation

The report was made 30 minutes ago, at 06:00 UTC
Wind 10 kt from the Southwest
Temperature 28°C
Humidity 48%
Pressure 1013 hPa
Visibility: 4000 m
haze

Change units

Forecast

The report was made 3 hours and 0 minutes ago, at 03:30 UTC
Forecast valid from 21 at 06 UTC to 22 at 12 UTC
Wind 10 kt from the Southeast
Visibility: 4000 m
haze
The information on this site is subject to a disclaimer
Weather : Europe Africa North America South America Asia Australia-Oceania Others
Satellite images 10-day forecastsClimateMarine weather Cyclones Lightning AirportsFAQ Languages Contact Newsletter About